sensor_id;sensor_type;location;lat;lon;timestamp;temperature;humidity
22161;DHT22;49035;48.812;11.762;2023-05-21T00:01:38;15.30;99.90
22161;DHT22;49035;48.812;11.762;2023-05-21T00:04:04;15.30;99.90
22161;DHT22;49035;48.812;11.762;2023-05-21T00:06:32;15.30;99.90
22161;DHT22;49035;48.812;11.762;2023-05-21T00:09:03;15.30;99.90
22161;DHT22;49035;48.812;11.762;2023-05-21T00:11:29;15.40;99.90
22161;DHT22;49035;48.812;11.762;2023-05-21T00:13:55;15.30;99.90
22161;DHT22;49035;48.812;11.762;2023-05-21T00:16:21;15.30;99.90
22161;DHT22;49035;48.812;11.762;2023-05-21T00:18:47;15.30;99.90
22161;DHT22;49035;48.812;11.762;2023-05-21T00:21:14;15.20;99.90
22161;DHT22;49035;48.812;11.762;2023-05-21T00:23:42;15.10;99.90
22161;DHT22;49035;48.812;11.762;2023-05-21T00:26:08;15.10;99.90
22161;DHT22;49035;48.812;11.762;2023-05-21T00:28:33;15.20;99.90
22161;DHT22;49035;48.812;11.762;2023-05-21T00:30:59;15.00;99.90
22161;DHT22;49035;48.812;11.762;2023-05-21T00:33:24;15.00;99.90
22161;DHT22;49035;48.812;11.762;2023-05-21T00:35:51;14.90;99.90
22161;DHT22;49035;48.812;11.762;2023-05-21T00:38:17;14.90;99.90
22161;DHT22;49035;48.812;11.762;2023-05-21T00:40:43;14.80;99.90
22161;DHT22;49035;48.812;11.762;2023-05-21T00:43:08;14.70;99.90
22161;DHT22;49035;48.812;11.762;2023-05-21T00:45:35;14.70;99.90
22161;DHT22;49035;48.812;11.762;2023-05-21T00:48:02;14.50;99.90
22161;DHT22;49035;48.812;11.762;2023-05-21T00:50:28;14.40;99.90
22161;DHT22;49035;48.812;11.762;2023-05-21T00:52:55;14.40;99.90
22161;DHT22;49035;48.812;11.762;2023-05-21T00:55:20;14.30;99.90
22161;DHT22;49035;48.812;11.762;2023-05-21T00:57:46;14.40;99.90
22161;DHT22;49035;48.812;11.762;2023-05-21T01:00:13;14.50;99.90
22161;DHT22;49035;48.812;11.762;2023-05-21T01:02:39;14.50;99.90
22161;DHT22;49035;48.812;11.762;2023-05-21T01:05:05;14.60;99.90
22161;DHT22;49035;48.812;11.762;2023-05-21T01:07:35;14.60;99.90
22161;DHT22;49035;48.812;11.762;2023-05-21T01:10:05;14.60;99.90
22161;DHT22;49035;48.812;11.762;2023-05-21T01:12:32;14.70;99.90
22161;DHT22;49035;48.812;11.762;2023-05-21T01:15:02;14.60;99.90
22161;DHT22;49035;48.812;11.762;2023-05-21T01:17:28;14.70;99.90
22161;DHT22;49035;48.812;11.762;2023-05-21T01:19:57;14.70;99.90
22161;DHT22;49035;48.812;11.762;2023-05-21T01:22:24;14.60;99.90
22161;DHT22;49035;48.812;11.762;2023-05-21T01:24:52;14.50;99.90
22161;DHT22;49035;48.812;11.762;2023-05-21T01:27:19;14.70;99.90
22161;DHT22;49035;48.812;11.762;2023-05-21T01:29:45;14.80;99.90
22161;DHT22;49035;48.812;11.762;2023-05-21T01:37:35;14.80;99.90
22161;DHT22;49035;48.812;11.762;2023-05-21T01:40:25;14.70;99.90
22161;DHT22;49035;48.812;11.762;2023-05-21T01:42:53;14.80;99.90
22161;DHT22;49035;48.812;11.762;2023-05-21T01:45:21;14.80;99.90
22161;DHT22;49035;48.812;11.762;2023-05-21T01:47:49;14.70;99.90
22161;DHT22;49035;48.812;11.762;2023-05-21T01:50:17;14.90;99.90
22161;DHT22;49035;48.812;11.762;2023-05-21T01:52:53;14.90;99.90
22161;DHT22;49035;48.812;11.762;2023-05-21T01:55:21;14.90;99.90
22161;DHT22;49035;48.812;11.762;2023-05-21T01:57:50;14.90;99.90
22161;DHT22;49035;48.812;11.762;2023-05-21T02:00:18;14.90;99.90
22161;DHT22;49035;48.812;11.762;2023-05-21T02:02:44;14.80;99.90
22161;DHT22;49035;48.812;11.762;2023-05-21T02:05:10;14.80;99.90
22161;DHT22;49035;48.812;11.762;2023-05-21T02:07:36;14.80;99.90
22161;DHT22;49035;48.812;11.762;2023-05-21T02:10:02;14.70;99.90
22161;DHT22;49035;48.812;11.762;2023-05-21T02:12:27;14.70;99.90
22161;DHT22;49035;48.812;11.762;2023-05-21T02:14:54;14.60;99.90
22161;DHT22;49035;48.812;11.762;2023-05-21T02:17:21;14.50;99.90
22161;DHT22;49035;48.812;11.762;2023-05-21T02:19:47;14.40;99.90
22161;DHT22;49035;48.812;11.762;2023-05-21T02:22:12;14.40;99.90
22161;DHT22;49035;48.812;11.762;2023-05-21T02:24:38;14.30;99.90
22161;DHT22;49035;48.812;11.762;2023-05-21T02:27:04;14.30;99.90
22161;DHT22;49035;48.812;11.762;2023-05-21T02:29:31;14.20;99.90
22161;DHT22;49035;48.812;11.762;2023-05-21T02:31:56;14.20;99.90
22161;DHT22;49035;48.812;11.762;2023-05-21T02:34:22;14.20;99.90
22161;DHT22;49035;48.812;11.762;2023-05-21T02:36:49;14.20;99.90
22161;DHT22;49035;48.812;11.762;2023-05-21T02:39:19;14.20;99.90
22161;DHT22;49035;48.812;11.762;2023-05-21T02:41:46;14.20;99.90
22161;DHT22;49035;48.812;11.762;2023-05-21T02:44:12;14.20;99.90
22161;DHT22;49035;48.812;11.762;2023-05-21T02:46:38;14.10;99.90
22161;DHT22;49035;48.812;11.762;2023-05-21T02:49:04;14.00;99.90
22161;DHT22;49035;48.812;11.762;2023-05-21T02:51:29;14.00;99.90
22161;DHT22;49035;48.812;11.762;2023-05-21T02:53:55;14.00;99.90
22161;DHT22;49035;48.812;11.762;2023-05-21T02:56:21;13.90;99.90
22161;DHT22;49035;48.812;11.762;2023-05-21T02:58:47;13.90;99.90
22161;DHT22;49035;48.812;11.762;2023-05-21T03:01:12;13.80;99.90
22161;DHT22;49035;48.812;11.762;2023-05-21T03:03:38;13.80;99.90
22161;DHT22;49035;48.812;11.762;2023-05-21T03:06:03;13.80;99.90
22161;DHT22;49035;48.812;11.762;2023-05-21T03:08:29;13.80;99.90
22161;DHT22;49035;48.812;11.762;2023-05-21T03:10:56;13.80;99.90
22161;DHT22;49035;48.812;11.762;2023-05-21T03:13:21;14.00;99.90
22161;DHT22;49035;48.812;11.762;2023-05-21T03:15:47;14.00;99.90
22161;DHT22;49035;48.812;11.762;2023-05-21T03:18:12;13.80;99.90
22161;DHT22;49035;48.812;11.762;2023-05-21T03:20:38;13.70;99.90
22161;DHT22;49035;48.812;11.762;2023-05-21T03:23:08;13.60;99.90
22161;DHT22;49035;48.812;11.762;2023-05-21T03:25:37;13.60;99.90
22161;DHT22;49035;48.812;11.762;2023-05-21T03:28:02;13.80;99.90
22161;DHT22;49035;48.812;11.762;2023-05-21T03:30:28;13.80;99.90
22161;DHT22;49035;48.812;11.762;2023-05-21T03:32:53;13.80;99.90
22161;DHT22;49035;48.812;11.762;2023-05-21T03:35:20;13.80;99.90
22161;DHT22;49035;48.812;11.762;2023-05-21T03:37:46;13.80;99.90
22161;DHT22;49035;48.812;11.762;2023-05-21T03:40:12;13.80;99.90
22161;DHT22;49035;48.812;11.762;2023-05-21T03:42:38;13.90;99.90
22161;DHT22;49035;48.812;11.762;2023-05-21T03:45:04;13.80;99.90
22161;DHT22;49035;48.812;11.762;2023-05-21T03:47:30;13.80;99.90
22161;DHT22;49035;48.812;11.762;2023-05-21T03:49:56;13.80;99.90
22161;DHT22;49035;48.812;11.762;2023-05-21T03:52:21;13.80;99.90
22161;DHT22;49035;48.812;11.762;2023-05-21T03:54:47;13.90;99.90
22161;DHT22;49035;48.812;11.762;2023-05-21T03:57:13;13.90;99.90
22161;DHT22;49035;48.812;11.762;2023-05-21T03:59:38;13.90;99.90
22161;DHT22;49035;48.812;11.762;2023-05-21T04:02:04;14.00;99.90
22161;DHT22;49035;48.812;11.762;2023-05-21T04:04:29;13.90;99.90
22161;DHT22;49035;48.812;11.762;2023-05-21T04:06:55;14.00;99.90
22161;DHT22;49035;48.812;11.762;2023-05-21T04:09:20;14.10;99.90
22161;DHT22;49035;48.812;11.762;2023-05-21T04:11:46;14.10;99.90
22161;DHT22;49035;48.812;11.762;2023-05-21T04:14:12;14.20;99.90
22161;DHT22;49035;48.812;11.762;2023-05-21T04:16:38;14.20;99.90
22161;DHT22;49035;48.812;11.762;2023-05-21T04:19:04;14.30;99.90
22161;DHT22;49035;48.812;11.762;2023-05-21T04:21:30;14.40;99.90
22161;DHT22;49035;48.812;11.762;2023-05-21T04:23:56;14.40;99.90
22161;DHT22;49035;48.812;11.762;2023-05-21T04:26:22;14.30;99.90
22161;DHT22;49035;48.812;11.762;2023-05-21T04:28:49;14.40;99.90
22161;DHT22;49035;48.812;11.762;2023-05-21T04:31:15;14.60;99.90
22161;DHT22;49035;48.812;11.762;2023-05-21T04:33:41;14.70;99.90
22161;DHT22;49035;48.812;11.762;2023-05-21T04:36:10;14.80;99.90
22161;DHT22;49035;48.812;11.762;2023-05-21T04:38:36;14.90;99.90
22161;DHT22;49035;48.812;11.762;2023-05-21T04:41:02;14.90;99.90
22161;DHT22;49035;48.812;11.762;2023-05-21T04:43:28;15.00;99.90
22161;DHT22;49035;48.812;11.762;2023-05-21T04:45:54;15.10;99.90
22161;DHT22;49035;48.812;11.762;2023-05-21T04:48:24;15.20;99.90
22161;DHT22;49035;48.812;11.762;2023-05-21T04:50:51;15.20;99.90
22161;DHT22;49035;48.812;11.762;2023-05-21T04:53:17;15.30;99.90
22161;DHT22;49035;48.812;11.762;2023-05-21T04:55:43;15.40;99.90
22161;DHT22;49035;48.812;11.762;2023-05-21T04:58:09;15.60;99.90
22161;DHT22;49035;48.812;11.762;2023-05-21T05:00:38;15.70;99.90
22161;DHT22;49035;48.812;11.762;2023-05-21T05:03:06;15.70;99.90
22161;DHT22;49035;48.812;11.762;2023-05-21T05:05:31;15.80;99.90
22161;DHT22;49035;48.812;11.762;2023-05-21T05:07:57;15.90;99.90
22161;DHT22;49035;48.812;11.762;2023-05-21T05:10:23;16.20;99.90
22161;DHT22;49035;48.812;11.762;2023-05-21T05:12:48;16.40;99.90
22161;DHT22;49035;48.812;11.762;2023-05-21T05:15:14;16.60;99.90
22161;DHT22;49035;48.812;11.762;2023-05-21T05:17:40;16.90;99.90
22161;DHT22;49035;48.812;11.762;2023-05-21T05:20:09;17.10;99.90
22161;DHT22;49035;48.812;11.762;2023-05-21T05:22:35;17.40;99.90
22161;DHT22;49035;48.812;11.762;2023-05-21T05:25:01;17.50;99.90
22161;DHT22;49035;48.812;11.762;2023-05-21T05:27:26;17.50;99.90
22161;DHT22;49035;48.812;11.762;2023-05-21T05:29:52;17.80;99.90
22161;DHT22;49035;48.812;11.762;2023-05-21T05:32:18;18.00;99.90
22161;DHT22;49035;48.812;11.762;2023-05-21T05:34:44;18.10;99.90
22161;DHT22;49035;48.812;11.762;2023-05-21T05:37:10;18.30;99.90
22161;DHT22;49035;48.812;11.762;2023-05-21T05:39:36;18.60;99.90
22161;DHT22;49035;48.812;11.762;2023-05-21T05:42:02;18.90;99.90
22161;DHT22;49035;48.812;11.762;2023-05-21T05:44:28;19.10;99.90
22161;DHT22;49035;48.812;11.762;2023-05-21T05:46:53;19.50;99.90
22161;DHT22;49035;48.812;11.762;2023-05-21T05:49:19;19.90;99.90
22161;DHT22;49035;48.812;11.762;2023-05-21T05:51:45;20.20;99.90
22161;DHT22;49035;48.812;11.762;2023-05-21T05:54:10;20.70;99.90
22161;DHT22;49035;48.812;11.762;2023-05-21T05:56:36;21.30;99.90
22161;DHT22;49035;48.812;11.762;2023-05-21T05:59:01;21.70;99.90
22161;DHT22;49035;48.812;11.762;2023-05-21T06:01:27;21.80;99.30
22161;DHT22;49035;48.812;11.762;2023-05-21T06:03:53;21.90;97.90
22161;DHT22;49035;48.812;11.762;2023-05-21T06:06:18;22.00;96.80
22161;DHT22;49035;48.812;11.762;2023-05-21T06:08:44;22.00;95.50
22161;DHT22;49035;48.812;11.762;2023-05-21T06:11:10;22.20;95.70
22161;DHT22;49035;48.812;11.762;2023-05-21T06:13:36;22.10;94.20
22161;DHT22;49035;48.812;11.762;2023-05-21T06:16:02;21.80;94.90
22161;DHT22;49035;48.812;11.762;2023-05-21T06:18:28;21.40;95.10
22161;DHT22;49035;48.812;11.762;2023-05-21T06:20:56;21.40;95.90
22161;DHT22;49035;48.812;11.762;2023-05-21T06:23:22;21.60;94.50
22161;DHT22;49035;48.812;11.762;2023-05-21T06:25:48;21.50;94.80
22161;DHT22;49035;48.812;11.762;2023-05-21T06:28:13;21.60;95.10
22161;DHT22;49035;48.812;11.762;2023-05-21T06:30:39;21.70;94.80
22161;DHT22;49035;48.812;11.762;2023-05-21T06:33:05;21.70;94.70
22161;DHT22;49035;48.812;11.762;2023-05-21T06:35:31;21.60;93.70
22161;DHT22;49035;48.812;11.762;2023-05-21T06:37:59;21.70;95.20
22161;DHT22;49035;48.812;11.762;2023-05-21T06:40:24;21.80;93.50
22161;DHT22;49035;48.812;11.762;2023-05-21T06:42:50;21.80;94.20
22161;DHT22;49035;48.812;11.762;2023-05-21T06:45:16;22.00;92.10
22161;DHT22;49035;48.812;11.762;2023-05-21T06:47:41;22.00;93.70
22161;DHT22;49035;48.812;11.762;2023-05-21T06:50:07;22.60;93.20
22161;DHT22;49035;48.812;11.762;2023-05-21T06:52:33;23.30;92.30
22161;DHT22;49035;48.812;11.762;2023-05-21T06:54:58;23.80;91.70
22161;DHT22;49035;48.812;11.762;2023-05-21T06:57:24;23.70;86.70
22161;DHT22;49035;48.812;11.762;2023-05-21T06:59:49;23.70;88.50
22161;DHT22;49035;48.812;11.762;2023-05-21T07:02:15;23.70;88.20
22161;DHT22;49035;48.812;11.762;2023-05-21T07:04:41;23.80;84.90
22161;DHT22;49035;48.812;11.762;2023-05-21T07:07:06;23.50;86.20
22161;DHT22;49035;48.812;11.762;2023-05-21T07:09:32;23.40;86.70
22161;DHT22;49035;48.812;11.762;2023-05-21T07:11:57;23.20;88.80
22161;DHT22;49035;48.812;11.762;2023-05-21T07:14:24;23.20;90.30
22161;DHT22;49035;48.812;11.762;2023-05-21T07:16:50;23.00;86.70
22161;DHT22;49035;48.812;11.762;2023-05-21T07:19:16;23.30;88.70
22161;DHT22;49035;48.812;11.762;2023-05-21T07:21:41;23.50;86.80
22161;DHT22;49035;48.812;11.762;2023-05-21T07:24:07;23.50;90.20
22161;DHT22;49035;48.812;11.762;2023-05-21T07:26:32;23.40;86.50
22161;DHT22;49035;48.812;11.762;2023-05-21T07:28:58;23.20;88.30
22161;DHT22;49035;48.812;11.762;2023-05-21T07:31:23;23.30;89.50
22161;DHT22;49035;48.812;11.762;2023-05-21T07:33:49;23.10;87.50
22161;DHT22;49035;48.812;11.762;2023-05-21T07:36:15;23.10;87.90
22161;DHT22;49035;48.812;11.762;2023-05-21T07:38:43;23.10;88.80
22161;DHT22;49035;48.812;11.762;2023-05-21T07:41:08;23.30;86.90
22161;DHT22;49035;48.812;11.762;2023-05-21T07:43:35;23.20;89.10
22161;DHT22;49035;48.812;11.762;2023-05-21T07:46:01;23.10;86.20
22161;DHT22;49035;48.812;11.762;2023-05-21T07:48:26;23.10;88.20
22161;DHT22;49035;48.812;11.762;2023-05-21T07:50:52;23.20;88.60
22161;DHT22;49035;48.812;11.762;2023-05-21T07:53:18;23.20;87.70
22161;DHT22;49035;48.812;11.762;2023-05-21T07:55:45;23.20;84.90
22161;DHT22;49035;48.812;11.762;2023-05-21T07:58:15;23.30;85.50
22161;DHT22;49035;48.812;11.762;2023-05-21T08:00:43;23.80;85.70
22161;DHT22;49035;48.812;11.762;2023-05-21T08:03:15;23.90;84.60
22161;DHT22;49035;48.812;11.762;2023-05-21T08:05:45;24.10;84.00
22161;DHT22;49035;48.812;11.762;2023-05-21T08:08:18;24.30;82.00
22161;DHT22;49035;48.812;11.762;2023-05-21T08:10:44;25.00;80.50
22161;DHT22;49035;48.812;11.762;2023-05-21T08:13:11;25.70;77.70
22161;DHT22;49035;48.812;11.762;2023-05-21T08:15:37;26.00;73.40
22161;DHT22;49035;48.812;11.762;2023-05-21T08:18:03;26.50;76.20
22161;DHT22;49035;48.812;11.762;2023-05-21T08:20:30;27.50;71.20
22161;DHT22;49035;48.812;11.762;2023-05-21T08:22:56;27.80;66.00
22161;DHT22;49035;48.812;11.762;2023-05-21T08:25:22;27.70;68.10
22161;DHT22;49035;48.812;11.762;2023-05-21T08:27:48;27.90;64.10
22161;DHT22;49035;48.812;11.762;2023-05-21T08:30:13;27.70;65.80
22161;DHT22;49035;48.812;11.762;2023-05-21T08:32:39;27.80;65.00
22161;DHT22;49035;48.812;11.762;2023-05-21T08:35:05;28.30;64.40
22161;DHT22;49035;48.812;11.762;2023-05-21T08:37:31;28.30;62.50
22161;DHT22;49035;48.812;11.762;2023-05-21T08:39:57;28.00;59.20
22161;DHT22;49035;48.812;11.762;2023-05-21T08:42:26;27.80;61.90
22161;DHT22;49035;48.812;11.762;2023-05-21T08:44:58;28.10;63.30
22161;DHT22;49035;48.812;11.762;2023-05-21T08:47:25;28.10;64.40
22161;DHT22;49035;48.812;11.762;2023-05-21T08:49:54;28.30;61.60
22161;DHT22;49035;48.812;11.762;2023-05-21T08:52:20;28.40;60.40
22161;DHT22;49035;48.812;11.762;2023-05-21T08:54:47;28.30;58.40
22161;DHT22;49035;48.812;11.762;2023-05-21T08:57:16;28.00;57.70
22161;DHT22;49035;48.812;11.762;2023-05-21T08:59:43;27.70;58.10
22161;DHT22;49035;48.812;11.762;2023-05-21T09:02:12;28.00;62.70
22161;DHT22;49035;48.812;11.762;2023-05-21T09:04:41;28.40;62.70
22161;DHT22;49035;48.812;11.762;2023-05-21T09:07:08;28.80;60.80
22161;DHT22;49035;48.812;11.762;2023-05-21T09:09:40;28.50;58.10
22161;DHT22;49035;48.812;11.762;2023-05-21T09:12:08;28.10;59.30
22161;DHT22;49035;48.812;11.762;2023-05-21T09:14:34;27.70;59.60
22161;DHT22;49035;48.812;11.762;2023-05-21T09:17:01;27.50;63.40
22161;DHT22;49035;48.812;11.762;2023-05-21T09:19:26;27.40;63.10
22161;DHT22;49035;48.812;11.762;2023-05-21T09:22:00;27.10;64.50
22161;DHT22;49035;48.812;11.762;2023-05-21T09:24:29;27.40;64.10
22161;DHT22;49035;48.812;11.762;2023-05-21T09:26:56;27.80;64.40
22161;DHT22;49035;48.812;11.762;2023-05-21T09:29:23;27.70;62.20
22161;DHT22;49035;48.812;11.762;2023-05-21T09:31:50;27.50;64.20
22161;DHT22;49035;48.812;11.762;2023-05-21T09:34:16;27.00;62.00
22161;DHT22;49035;48.812;11.762;2023-05-21T09:36:42;27.10;62.80
22161;DHT22;49035;48.812;11.762;2023-05-21T09:39:11;27.20;66.30
22161;DHT22;49035;48.812;11.762;2023-05-21T09:41:51;27.30;63.40
22161;DHT22;49035;48.812;11.762;2023-05-21T09:44:17;27.40;64.20
22161;DHT22;49035;48.812;11.762;2023-05-21T09:46:42;27.90;63.60
22161;DHT22;49035;48.812;11.762;2023-05-21T09:49:28;27.90;61.90
22161;DHT22;49035;48.812;11.762;2023-05-21T09:51:55;27.40;62.40
22161;DHT22;49035;48.812;11.762;2023-05-21T09:54:22;27.40;63.00
22161;DHT22;49035;48.812;11.762;2023-05-21T09:56:50;27.40;64.60
22161;DHT22;49035;48.812;11.762;2023-05-21T09:59:17;27.80;63.30
22161;DHT22;49035;48.812;11.762;2023-05-21T10:01:43;27.90;62.40
22161;DHT22;49035;48.812;11.762;2023-05-21T10:04:10;28.10;60.10
22161;DHT22;49035;48.812;11.762;2023-05-21T10:06:41;27.50;62.00
22161;DHT22;49035;48.812;11.762;2023-05-21T10:09:09;27.70;60.10
22161;DHT22;49035;48.812;11.762;2023-05-21T10:11:35;27.80;62.00
22161;DHT22;49035;48.812;11.762;2023-05-21T10:14:24;27.70;58.20
22161;DHT22;49035;48.812;11.762;2023-05-21T10:16:51;27.30;61.10
22161;DHT22;49035;48.812;11.762;2023-05-21T10:19:19;27.20;60.20
22161;DHT22;49035;48.812;11.762;2023-05-21T10:21:45;27.30;61.40
22161;DHT22;49035;48.812;11.762;2023-05-21T10:24:12;27.40;58.80
22161;DHT22;49035;48.812;11.762;2023-05-21T10:26:38;27.50;59.00
22161;DHT22;49035;48.812;11.762;2023-05-21T10:29:07;27.50;60.20
22161;DHT22;49035;48.812;11.762;2023-05-21T10:31:33;27.30;58.20
22161;DHT22;49035;48.812;11.762;2023-05-21T10:33:59;27.20;57.90
22161;DHT22;49035;48.812;11.762;2023-05-21T10:36:29;27.30;61.50
22161;DHT22;49035;48.812;11.762;2023-05-21T10:38:56;27.50;59.70
22161;DHT22;49035;48.812;11.762;2023-05-21T10:41:23;27.60;61.20
22161;DHT22;49035;48.812;11.762;2023-05-21T10:49:26;27.70;57.60
22161;DHT22;49035;48.812;11.762;2023-05-21T10:52:17;27.80;57.50
22161;DHT22;49035;48.812;11.762;2023-05-21T11:00:20;27.90;56.80
22161;DHT22;49035;48.812;11.762;2023-05-21T11:02:47;28.10;62.10
22161;DHT22;49035;48.812;11.762;2023-05-21T11:05:13;28.10;56.20
22161;DHT22;49035;48.812;11.762;2023-05-21T11:07:57;28.00;56.90
22161;DHT22;49035;48.812;11.762;2023-05-21T11:13:16;28.50;56.90
22161;DHT22;49035;48.812;11.762;2023-05-21T11:18:22;28.90;54.70
22161;DHT22;49035;48.812;11.762;2023-05-21T11:20:51;28.10;56.80
22161;DHT22;49035;48.812;11.762;2023-05-21T11:23:19;27.60;59.20
22161;DHT22;49035;48.812;11.762;2023-05-21T11:25:59;27.00;63.20
22161;DHT22;49035;48.812;11.762;2023-05-21T11:28:32;26.50;63.20
22161;DHT22;49035;48.812;11.762;2023-05-21T11:31:24;26.20;63.40
22161;DHT22;49035;48.812;11.762;2023-05-21T11:34:19;25.90;64.50
22161;DHT22;49035;48.812;11.762;2023-05-21T11:36:47;26.00;65.10
22161;DHT22;49035;48.812;11.762;2023-05-21T11:39:14;26.30;64.40
22161;DHT22;49035;48.812;11.762;2023-05-21T11:41:59;26.40;64.80
22161;DHT22;49035;48.812;11.762;2023-05-21T11:44:40;26.70;62.30
22161;DHT22;49035;48.812;11.762;2023-05-21T11:47:09;27.20;62.70
22161;DHT22;49035;48.812;11.762;2023-05-21T11:49:35;27.70;61.00
22161;DHT22;49035;48.812;11.762;2023-05-21T11:52:03;28.00;58.50
22161;DHT22;49035;48.812;11.762;2023-05-21T11:54:30;28.20;60.10
22161;DHT22;49035;48.812;11.762;2023-05-21T11:57:04;28.20;54.90
22161;DHT22;49035;48.812;11.762;2023-05-21T11:59:31;28.40;57.60
22161;DHT22;49035;48.812;11.762;2023-05-21T12:01:58;28.60;55.60
22161;DHT22;49035;48.812;11.762;2023-05-21T12:04:28;28.80;57.60
22161;DHT22;49035;48.812;11.762;2023-05-21T12:06:54;29.00;56.60
22161;DHT22;49035;48.812;11.762;2023-05-21T12:09:22;29.50;58.10
22161;DHT22;49035;48.812;11.762;2023-05-21T12:11:48;29.50;54.30
22161;DHT22;49035;48.812;11.762;2023-05-21T12:14:16;29.80;57.00
22161;DHT22;49035;48.812;11.762;2023-05-21T12:16:42;30.00;57.40
22161;DHT22;49035;48.812;11.762;2023-05-21T12:19:08;30.10;53.50
22161;DHT22;49035;48.812;11.762;2023-05-21T12:21:34;30.10;52.80
22161;DHT22;49035;48.812;11.762;2023-05-21T12:24:00;29.60;53.90
22161;DHT22;49035;48.812;11.762;2023-05-21T12:26:26;29.70;55.50
22161;DHT22;49035;48.812;11.762;2023-05-21T12:28:55;29.90;55.10
22161;DHT22;49035;48.812;11.762;2023-05-21T12:31:22;29.80;52.90
22161;DHT22;49035;48.812;11.762;2023-05-21T12:33:51;30.10;54.70
22161;DHT22;49035;48.812;11.762;2023-05-21T12:36:35;30.00;51.40
22161;DHT22;49035;48.812;11.762;2023-05-21T12:39:02;30.00;51.90
22161;DHT22;49035;48.812;11.762;2023-05-21T12:41:28;30.00;52.80
22161;DHT22;49035;48.812;11.762;2023-05-21T12:43:54;30.40;55.40
22161;DHT22;49035;48.812;11.762;2023-05-21T12:46:20;30.70;51.60
22161;DHT22;49035;48.812;11.762;2023-05-21T12:48:48;30.90;52.50
22161;DHT22;49035;48.812;11.762;2023-05-21T12:51:14;31.20;47.50
22161;DHT22;49035;48.812;11.762;2023-05-21T12:53:43;31.60;50.30
22161;DHT22;49035;48.812;11.762;2023-05-21T12:56:13;32.00;49.70
22161;DHT22;49035;48.812;11.762;2023-05-21T12:58:41;32.00;48.30
22161;DHT22;49035;48.812;11.762;2023-05-21T13:01:07;30.30;51.60
22161;DHT22;49035;48.812;11.762;2023-05-21T13:03:34;29.60;54.10
22161;DHT22;49035;48.812;11.762;2023-05-21T13:06:00;29.30;53.80
22161;DHT22;49035;48.812;11.762;2023-05-21T13:08:26;29.30;56.10
22161;DHT22;49035;48.812;11.762;2023-05-21T13:10:52;29.60;55.20
22161;DHT22;49035;48.812;11.762;2023-05-21T13:13:18;29.80;55.00
22161;DHT22;49035;48.812;11.762;2023-05-21T13:15:44;29.50;56.10
22161;DHT22;49035;48.812;11.762;2023-05-21T13:18:09;29.60;56.00
22161;DHT22;49035;48.812;11.762;2023-05-21T13:20:36;30.00;54.90
22161;DHT22;49035;48.812;11.762;2023-05-21T13:23:02;30.10;51.40
22161;DHT22;49035;48.812;11.762;2023-05-21T13:25:29;30.10;50.20
22161;DHT22;49035;48.812;11.762;2023-05-21T13:28:01;29.90;51.20
22161;DHT22;49035;48.812;11.762;2023-05-21T13:30:27;29.90;52.80
22161;DHT22;49035;48.812;11.762;2023-05-21T13:32:53;30.10;51.90
22161;DHT22;49035;48.812;11.762;2023-05-21T13:35:19;30.30;50.40
22161;DHT22;49035;48.812;11.762;2023-05-21T13:37:44;29.80;51.00
22161;DHT22;49035;48.812;11.762;2023-05-21T13:40:11;29.30;51.00
22161;DHT22;49035;48.812;11.762;2023-05-21T13:42:41;28.90;52.40
22161;DHT22;49035;48.812;11.762;2023-05-21T13:45:09;29.00;53.90
22161;DHT22;49035;48.812;11.762;2023-05-21T13:47:35;29.00;53.20
22161;DHT22;49035;48.812;11.762;2023-05-21T13:50:01;29.10;56.40
22161;DHT22;49035;48.812;11.762;2023-05-21T13:52:27;28.90;55.70
22161;DHT22;49035;48.812;11.762;2023-05-21T13:54:52;29.00;56.90
22161;DHT22;49035;48.812;11.762;2023-05-21T13:57:18;29.40;57.40
22161;DHT22;49035;48.812;11.762;2023-05-21T13:59:44;29.80;53.50
22161;DHT22;49035;48.812;11.762;2023-05-21T14:02:09;29.70;54.80
22161;DHT22;49035;48.812;11.762;2023-05-21T14:04:36;29.60;53.90
22161;DHT22;49035;48.812;11.762;2023-05-21T14:07:02;30.00;54.60
22161;DHT22;49035;48.812;11.762;2023-05-21T14:09:29;29.90;53.90
22161;DHT22;49035;48.812;11.762;2023-05-21T14:11:58;30.20;52.80
22161;DHT22;49035;48.812;11.762;2023-05-21T14:14:23;30.70;53.30
22161;DHT22;49035;48.812;11.762;2023-05-21T14:16:50;30.90;49.60
22161;DHT22;49035;48.812;11.762;2023-05-21T14:19:16;30.90;50.80
22161;DHT22;49035;48.812;11.762;2023-05-21T14:21:42;31.00;50.10
22161;DHT22;49035;48.812;11.762;2023-05-21T14:24:08;31.00;50.90
22161;DHT22;49035;48.812;11.762;2023-05-21T14:26:33;31.50;48.40
22161;DHT22;49035;48.812;11.762;2023-05-21T14:29:01;32.10;48.90
22161;DHT22;49035;48.812;11.762;2023-05-21T14:31:26;32.30;47.30
22161;DHT22;49035;48.812;11.762;2023-05-21T14:33:52;31.90;50.30
22161;DHT22;49035;48.812;11.762;2023-05-21T14:36:18;31.80;48.10
22161;DHT22;49035;48.812;11.762;2023-05-21T14:38:44;31.60;50.90
22161;DHT22;49035;48.812;11.762;2023-05-21T14:41:10;31.70;50.80
22161;DHT22;49035;48.812;11.762;2023-05-21T14:43:36;31.40;48.30
22161;DHT22;49035;48.812;11.762;2023-05-21T14:46:01;30.80;48.00
22161;DHT22;49035;48.812;11.762;2023-05-21T14:48:27;30.10;51.80
22161;DHT22;49035;48.812;11.762;2023-05-21T14:50:52;29.50;51.70
22161;DHT22;49035;48.812;11.762;2023-05-21T14:53:18;29.10;53.40
22161;DHT22;49035;48.812;11.762;2023-05-21T14:55:45;28.60;53.90
22161;DHT22;49035;48.812;11.762;2023-05-21T14:58:11;28.40;55.20
22161;DHT22;49035;48.812;11.762;2023-05-21T15:00:37;28.20;57.70
22161;DHT22;49035;48.812;11.762;2023-05-21T15:03:03;28.20;56.60
22161;DHT22;49035;48.812;11.762;2023-05-21T15:05:31;28.10;55.40
22161;DHT22;49035;48.812;11.762;2023-05-21T15:07:57;28.20;56.70
22161;DHT22;49035;48.812;11.762;2023-05-21T15:10:27;28.80;57.30
22161;DHT22;49035;48.812;11.762;2023-05-21T15:12:53;29.60;53.40
22161;DHT22;49035;48.812;11.762;2023-05-21T15:15:19;29.90;51.90
22161;DHT22;49035;48.812;11.762;2023-05-21T15:17:46;30.70;53.40
22161;DHT22;49035;48.812;11.762;2023-05-21T15:20:12;30.90;53.50
22161;DHT22;49035;48.812;11.762;2023-05-21T15:22:38;30.80;51.00
22161;DHT22;49035;48.812;11.762;2023-05-21T15:25:05;30.90;52.90
22161;DHT22;49035;48.812;11.762;2023-05-21T15:27:31;31.80;50.80
22161;DHT22;49035;48.812;11.762;2023-05-21T15:29:57;32.40;49.00
22161;DHT22;49035;48.812;11.762;2023-05-21T15:32:23;32.80;48.30
22161;DHT22;49035;48.812;11.762;2023-05-21T15:34:49;32.20;48.60
22161;DHT22;49035;48.812;11.762;2023-05-21T15:37:16;32.90;50.70